sensor_id;sensor_type;location;lat;lon;timestamp;P1;durP1;ratioP1;P2;durP2;ratioP2
50815;SDS011;39717;47.324;8.788;2023-02-15T00:01:39;63.33;;;25.27;;
50815;SDS011;39717;47.324;8.788;2023-02-15T00:04:06;68.70;;;25.17;;
50815;SDS011;39717;47.324;8.788;2023-02-15T00:06:33;88.13;;;25.90;;
50815;SDS011;39717;47.324;8.788;2023-02-15T00:08:59;76.87;;;25.87;;
50815;SDS011;39717;47.324;8.788;2023-02-15T00:11:26;77.87;;;26.93;;
50815;SDS011;39717;47.324;8.788;2023-02-15T00:14:22;103.43;;;30.97;;
50815;SDS011;39717;47.324;8.788;2023-02-15T00:16:49;162.03;;;35.97;;
50815;SDS011;39717;47.324;8.788;2023-02-15T00:19:16;148.43;;;34.27;;
50815;SDS011;39717;47.324;8.788;2023-02-15T00:21:43;105.10;;;30.00;;
50815;SDS011;39717;47.324;8.788;2023-02-15T00:24:10;89.27;;;27.60;;
50815;SDS011;39717;47.324;8.788;2023-02-15T00:26:37;85.10;;;26.80;;
50815;SDS011;39717;47.324;8.788;2023-02-15T00:29:04;53.43;;;24.77;;
50815;SDS011;39717;47.324;8.788;2023-02-15T00:31:31;172.67;;;36.10;;
50815;SDS011;39717;47.324;8.788;2023-02-15T00:34:05;59.83;;;26.20;;
50815;SDS011;39717;47.324;8.788;2023-02-15T00:36:31;122.77;;;29.70;;
50815;SDS011;39717;47.324;8.788;2023-02-15T00:38:58;117.30;;;30.97;;
50815;SDS011;39717;47.324;8.788;2023-02-15T00:41:24;87.90;;;26.27;;
50815;SDS011;39717;47.324;8.788;2023-02-15T00:43:50;109.20;;;28.63;;
50815;SDS011;39717;47.324;8.788;2023-02-15T00:46:16;123.40;;;28.83;;
50815;SDS011;39717;47.324;8.788;2023-02-15T00:48:42;77.73;;;25.63;;
50815;SDS011;39717;47.324;8.788;2023-02-15T00:51:08;51.50;;;19.33;;
50815;SDS011;39717;47.324;8.788;2023-02-15T00:53:34;67.07;;;22.87;;
50815;SDS011;39717;47.324;8.788;2023-02-15T00:56:01;54.57;;;23.60;;
50815;SDS011;39717;47.324;8.788;2023-02-15T00:58:27;80.10;;;25.53;;
50815;SDS011;39717;47.324;8.788;2023-02-15T01:00:53;58.33;;;23.47;;
50815;SDS011;39717;47.324;8.788;2023-02-15T01:03:19;67.77;;;24.37;;
50815;SDS011;39717;47.324;8.788;2023-02-15T01:05:47;59.47;;;22.60;;
50815;SDS011;39717;47.324;8.788;2023-02-15T01:08:13;101.93;;;28.40;;
50815;SDS011;39717;47.324;8.788;2023-02-15T01:10:39;143.73;;;32.43;;
50815;SDS011;39717;47.324;8.788;2023-02-15T01:13:06;73.73;;;24.73;;
50815;SDS011;39717;47.324;8.788;2023-02-15T01:15:33;85.80;;;25.27;;
50815;SDS011;39717;47.324;8.788;2023-02-15T01:17:59;104.60;;;26.90;;
50815;SDS011;39717;47.324;8.788;2023-02-15T01:20:27;94.57;;;27.43;;
50815;SDS011;39717;47.324;8.788;2023-02-15T01:22:53;98.00;;;25.57;;
50815;SDS011;39717;47.324;8.788;2023-02-15T01:25:21;103.10;;;25.50;;
50815;SDS011;39717;47.324;8.788;2023-02-15T01:27:48;79.10;;;25.60;;
50815;SDS011;39717;47.324;8.788;2023-02-15T01:30:15;55.47;;;23.80;;
50815;SDS011;39717;47.324;8.788;2023-02-15T01:32:41;51.33;;;21.90;;
50815;SDS011;39717;47.324;8.788;2023-02-15T01:35:08;55.97;;;23.47;;
50815;SDS011;39717;47.324;8.788;2023-02-15T01:37:34;65.77;;;24.20;;
50815;SDS011;39717;47.324;8.788;2023-02-15T01:40:01;64.30;;;23.97;;
50815;SDS011;39717;47.324;8.788;2023-02-15T01:42:28;46.60;;;22.37;;
50815;SDS011;39717;47.324;8.788;2023-02-15T01:44:59;56.73;;;19.90;;
50815;SDS011;39717;47.324;8.788;2023-02-15T01:47:33;80.80;;;24.47;;
50815;SDS011;39717;47.324;8.788;2023-02-15T01:50:03;76.43;;;23.27;;
50815;SDS011;39717;47.324;8.788;2023-02-15T01:52:31;41.80;;;16.07;;
50815;SDS011;39717;47.324;8.788;2023-02-15T01:54:57;36.13;;;16.07;;
50815;SDS011;39717;47.324;8.788;2023-02-15T01:57:24;47.00;;;18.43;;
50815;SDS011;39717;47.324;8.788;2023-02-15T01:59:52;80.10;;;21.47;;
50815;SDS011;39717;47.324;8.788;2023-02-15T02:02:20;73.07;;;23.50;;
50815;SDS011;39717;47.324;8.788;2023-02-15T02:04:50;85.63;;;21.90;;
50815;SDS011;39717;47.324;8.788;2023-02-15T02:07:17;78.13;;;22.03;;
50815;SDS011;39717;47.324;8.788;2023-02-15T02:09:44;121.43;;;27.10;;
50815;SDS011;39717;47.324;8.788;2023-02-15T02:12:11;45.10;;;19.10;;
50815;SDS011;39717;47.324;8.788;2023-02-15T02:14:37;67.67;;;21.07;;
50815;SDS011;39717;47.324;8.788;2023-02-15T02:19:56;33.57;;;17.87;;
50815;SDS011;39717;47.324;8.788;2023-02-15T02:25:08;42.10;;;19.43;;
50815;SDS011;39717;47.324;8.788;2023-02-15T02:27:41;42.93;;;18.03;;
50815;SDS011;39717;47.324;8.788;2023-02-15T02:30:15;44.10;;;20.50;;
50815;SDS011;39717;47.324;8.788;2023-02-15T02:32:54;37.23;;;18.47;;
50815;SDS011;39717;47.324;8.788;2023-02-15T02:35:30;39.87;;;17.93;;
50815;SDS011;39717;47.324;8.788;2023-02-15T02:43:14;32.00;;;19.30;;
50815;SDS011;39717;47.324;8.788;2023-02-15T02:45:43;40.47;;;20.63;;
50815;SDS011;39717;47.324;8.788;2023-02-15T02:48:15;37.17;;;20.23;;
50815;SDS011;39717;47.324;8.788;2023-02-15T02:50:42;37.87;;;21.93;;
50815;SDS011;39717;47.324;8.788;2023-02-15T02:53:08;38.27;;;21.93;;
50815;SDS011;39717;47.324;8.788;2023-02-15T02:58:16;33.07;;;19.33;;
50815;SDS011;39717;47.324;8.788;2023-02-15T03:01:02;33.80;;;20.17;;
50815;SDS011;39717;47.324;8.788;2023-02-15T03:06:08;32.10;;;18.93;;
50815;SDS011;39717;47.324;8.788;2023-02-15T03:08:37;28.80;;;17.60;;
50815;SDS011;39717;47.324;8.788;2023-02-15T03:11:05;26.53;;;17.20;;
50815;SDS011;39717;47.324;8.788;2023-02-15T03:13:32;30.57;;;18.23;;
50815;SDS011;39717;47.324;8.788;2023-02-15T03:15:59;30.43;;;17.97;;
50815;SDS011;39717;47.324;8.788;2023-02-15T03:18:46;29.33;;;18.53;;
50815;SDS011;39717;47.324;8.788;2023-02-15T03:21:21;30.43;;;17.53;;
50815;SDS011;39717;47.324;8.788;2023-02-15T03:23:52;29.47;;;18.17;;
50815;SDS011;39717;47.324;8.788;2023-02-15T03:26:20;29.10;;;18.60;;
50815;SDS011;39717;47.324;8.788;2023-02-15T03:28:47;30.40;;;17.70;;
50815;SDS011;39717;47.324;8.788;2023-02-15T03:31:16;40.93;;;19.00;;
50815;SDS011;39717;47.324;8.788;2023-02-15T03:33:46;45.93;;;18.67;;
50815;SDS011;39717;47.324;8.788;2023-02-15T03:36:29;74.97;;;22.10;;
50815;SDS011;39717;47.324;8.788;2023-02-15T03:41:27;48.73;;;19.03;;
50815;SDS011;39717;47.324;8.788;2023-02-15T03:43:55;40.27;;;20.20;;
50815;SDS011;39717;47.324;8.788;2023-02-15T03:48:52;58.03;;;22.83;;
50815;SDS011;39717;47.324;8.788;2023-02-15T03:51:20;41.33;;;20.07;;
50815;SDS011;39717;47.324;8.788;2023-02-15T03:56:33;41.33;;;20.30;;
50815;SDS011;39717;47.324;8.788;2023-02-15T03:59:00;39.57;;;19.30;;
50815;SDS011;39717;47.324;8.788;2023-02-15T04:04:34;40.50;;;21.10;;
50815;SDS011;39717;47.324;8.788;2023-02-15T04:07:01;38.60;;;20.47;;
50815;SDS011;39717;47.324;8.788;2023-02-15T04:09:28;63.97;;;22.37;;
50815;SDS011;39717;47.324;8.788;2023-02-15T04:12:13;45.00;;;19.33;;
50815;SDS011;39717;47.324;8.788;2023-02-15T04:14:39;36.73;;;19.30;;
50815;SDS011;39717;47.324;8.788;2023-02-15T04:17:24;50.47;;;21.03;;
50815;SDS011;39717;47.324;8.788;2023-02-15T04:19:50;34.77;;;18.80;;
50815;SDS011;39717;47.324;8.788;2023-02-15T04:22:34;35.57;;;18.50;;
50815;SDS011;39717;47.324;8.788;2023-02-15T04:25:19;37.33;;;19.87;;
50815;SDS011;39717;47.324;8.788;2023-02-15T04:27:48;34.67;;;19.07;;
50815;SDS011;39717;47.324;8.788;2023-02-15T04:30:15;33.87;;;18.47;;
50815;SDS011;39717;47.324;8.788;2023-02-15T04:32:42;38.83;;;19.83;;
50815;SDS011;39717;47.324;8.788;2023-02-15T04:35:08;38.60;;;19.93;;
50815;SDS011;39717;47.324;8.788;2023-02-15T04:37:34;33.07;;;19.03;;
50815;SDS011;39717;47.324;8.788;2023-02-15T04:40:01;41.70;;;19.43;;
50815;SDS011;39717;47.324;8.788;2023-02-15T04:42:27;93.00;;;23.77;;
50815;SDS011;39717;47.324;8.788;2023-02-15T04:44:53;46.77;;;20.30;;
50815;SDS011;39717;47.324;8.788;2023-02-15T04:47:19;61.20;;;20.40;;
50815;SDS011;39717;47.324;8.788;2023-02-15T04:49:46;63.67;;;20.07;;
50815;SDS011;39717;47.324;8.788;2023-02-15T04:52:12;41.87;;;19.73;;
50815;SDS011;39717;47.324;8.788;2023-02-15T04:54:38;51.47;;;18.70;;
50815;SDS011;39717;47.324;8.788;2023-02-15T04:57:04;38.27;;;20.77;;
50815;SDS011;39717;47.324;8.788;2023-02-15T04:59:31;35.90;;;18.47;;
50815;SDS011;39717;47.324;8.788;2023-02-15T05:01:57;32.27;;;17.73;;
50815;SDS011;39717;47.324;8.788;2023-02-15T05:04:23;39.13;;;18.50;;
50815;SDS011;39717;47.324;8.788;2023-02-15T05:06:49;57.30;;;21.67;;
50815;SDS011;39717;47.324;8.788;2023-02-15T05:09:16;35.33;;;17.33;;
50815;SDS011;39717;47.324;8.788;2023-02-15T05:11:42;44.70;;;20.07;;
50815;SDS011;39717;47.324;8.788;2023-02-15T05:14:08;63.70;;;22.20;;
50815;SDS011;39717;47.324;8.788;2023-02-15T05:16:34;55.07;;;19.60;;
50815;SDS011;39717;47.324;8.788;2023-02-15T05:19:00;47.87;;;19.90;;
50815;SDS011;39717;47.324;8.788;2023-02-15T05:21:26;39.57;;;18.87;;
50815;SDS011;39717;47.324;8.788;2023-02-15T05:23:53;33.10;;;17.77;;
50815;SDS011;39717;47.324;8.788;2023-02-15T05:26:20;37.10;;;18.97;;
50815;SDS011;39717;47.324;8.788;2023-02-15T05:29:05;64.20;;;21.00;;
50815;SDS011;39717;47.324;8.788;2023-02-15T05:31:31;38.00;;;19.03;;
50815;SDS011;39717;47.324;8.788;2023-02-15T05:33:58;46.47;;;19.30;;
50815;SDS011;39717;47.324;8.788;2023-02-15T05:36:24;88.43;;;25.07;;
50815;SDS011;39717;47.324;8.788;2023-02-15T05:38:50;64.27;;;22.47;;
50815;SDS011;39717;47.324;8.788;2023-02-15T05:41:16;40.77;;;18.63;;
50815;SDS011;39717;47.324;8.788;2023-02-15T05:43:42;38.43;;;19.37;;
50815;SDS011;39717;47.324;8.788;2023-02-15T05:46:08;39.67;;;18.17;;
50815;SDS011;39717;47.324;8.788;2023-02-15T05:48:35;35.93;;;18.93;;
50815;SDS011;39717;47.324;8.788;2023-02-15T05:53:31;43.97;;;20.17;;
50815;SDS011;39717;47.324;8.788;2023-02-15T05:55:58;39.70;;;20.37;;
50815;SDS011;39717;47.324;8.788;2023-02-15T05:58:25;48.20;;;18.50;;
50815;SDS011;39717;47.324;8.788;2023-02-15T06:00:52;28.73;;;16.43;;
50815;SDS011;39717;47.324;8.788;2023-02-15T06:03:18;35.67;;;19.63;;
50815;SDS011;39717;47.324;8.788;2023-02-15T06:05:44;33.33;;;16.50;;
50815;SDS011;39717;47.324;8.788;2023-02-15T06:08:10;60.10;;;19.57;;
50815;SDS011;39717;47.324;8.788;2023-02-15T06:10:36;54.77;;;19.77;;
50815;SDS011;39717;47.324;8.788;2023-02-15T06:13:02;40.53;;;17.03;;
50815;SDS011;39717;47.324;8.788;2023-02-15T06:15:29;40.83;;;18.40;;
50815;SDS011;39717;47.324;8.788;2023-02-15T06:17:55;61.87;;;18.33;;
50815;SDS011;39717;47.324;8.788;2023-02-15T06:20:21;48.13;;;18.93;;
50815;SDS011;39717;47.324;8.788;2023-02-15T06:22:47;94.73;;;22.63;;
50815;SDS011;39717;47.324;8.788;2023-02-15T06:25:13;51.53;;;19.57;;
50815;SDS011;39717;47.324;8.788;2023-02-15T06:27:42;54.70;;;20.53;;
50815;SDS011;39717;47.324;8.788;2023-02-15T06:30:09;41.73;;;18.03;;
50815;SDS011;39717;47.324;8.788;2023-02-15T06:32:35;36.27;;;18.87;;
50815;SDS011;39717;47.324;8.788;2023-02-15T06:35:01;35.33;;;17.93;;
50815;SDS011;39717;47.324;8.788;2023-02-15T06:37:27;32.50;;;16.63;;
50815;SDS011;39717;47.324;8.788;2023-02-15T06:39:53;43.53;;;19.63;;
50815;SDS011;39717;47.324;8.788;2023-02-15T06:42:20;40.97;;;17.70;;
50815;SDS011;39717;47.324;8.788;2023-02-15T06:44:46;34.00;;;16.80;;
50815;SDS011;39717;47.324;8.788;2023-02-15T06:47:12;46.07;;;18.07;;
50815;SDS011;39717;47.324;8.788;2023-02-15T06:49:39;37.67;;;15.80;;
50815;SDS011;39717;47.324;8.788;2023-02-15T06:52:05;30.37;;;14.23;;
50815;SDS011;39717;47.324;8.788;2023-02-15T06:54:31;53.60;;;16.97;;
50815;SDS011;39717;47.324;8.788;2023-02-15T06:56:57;40.87;;;16.70;;
50815;SDS011;39717;47.324;8.788;2023-02-15T06:59:23;35.27;;;16.77;;
50815;SDS011;39717;47.324;8.788;2023-02-15T07:01:49;28.83;;;15.80;;
50815;SDS011;39717;47.324;8.788;2023-02-15T07:04:15;34.27;;;18.00;;
50815;SDS011;39717;47.324;8.788;2023-02-15T07:06:41;33.73;;;19.07;;
50815;SDS011;39717;47.324;8.788;2023-02-15T07:09:08;32.60;;;18.87;;
50815;SDS011;39717;47.324;8.788;2023-02-15T07:11:34;30.30;;;15.93;;
50815;SDS011;39717;47.324;8.788;2023-02-15T07:14:19;32.43;;;16.93;;
50815;SDS011;39717;47.324;8.788;2023-02-15T07:16:45;28.17;;;15.63;;
50815;SDS011;39717;47.324;8.788;2023-02-15T07:19:11;35.17;;;19.77;;
50815;SDS011;39717;47.324;8.788;2023-02-15T07:21:37;30.77;;;14.53;;
50815;SDS011;39717;47.324;8.788;2023-02-15T07:24:03;28.30;;;16.10;;
50815;SDS011;39717;47.324;8.788;2023-02-15T07:26:30;24.87;;;16.20;;
50815;SDS011;39717;47.324;8.788;2023-02-15T07:28:57;28.93;;;16.60;;
50815;SDS011;39717;47.324;8.788;2023-02-15T07:31:23;33.57;;;17.23;;
50815;SDS011;39717;47.324;8.788;2023-02-15T07:33:49;30.70;;;18.43;;
50815;SDS011;39717;47.324;8.788;2023-02-15T07:36:15;33.87;;;18.67;;
50815;SDS011;39717;47.324;8.788;2023-02-15T07:38:41;32.80;;;18.87;;
50815;SDS011;39717;47.324;8.788;2023-02-15T07:41:09;30.23;;;17.40;;
50815;SDS011;39717;47.324;8.788;2023-02-15T07:43:37;30.33;;;19.07;;
50815;SDS011;39717;47.324;8.788;2023-02-15T07:46:05;31.43;;;18.67;;
50815;SDS011;39717;47.324;8.788;2023-02-15T07:48:32;25.37;;;16.93;;
50815;SDS011;39717;47.324;8.788;2023-02-15T07:50:59;28.67;;;18.03;;
50815;SDS011;39717;47.324;8.788;2023-02-15T07:53:26;29.33;;;18.23;;
50815;SDS011;39717;47.324;8.788;2023-02-15T07:55:52;30.37;;;17.60;;
50815;SDS011;39717;47.324;8.788;2023-02-15T07:58:20;29.57;;;17.77;;
50815;SDS011;39717;47.324;8.788;2023-02-15T08:01:06;29.27;;;17.13;;
50815;SDS011;39717;47.324;8.788;2023-02-15T08:03:32;33.30;;;19.97;;
50815;SDS011;39717;47.324;8.788;2023-02-15T08:05:59;31.13;;;19.30;;
50815;SDS011;39717;47.324;8.788;2023-02-15T08:08:30;32.63;;;18.73;;
50815;SDS011;39717;47.324;8.788;2023-02-15T08:16:31;31.97;;;18.63;;
50815;SDS011;39717;47.324;8.788;2023-02-15T08:18:58;32.20;;;18.27;;
50815;SDS011;39717;47.324;8.788;2023-02-15T08:21:26;23.27;;;13.73;;
50815;SDS011;39717;47.324;8.788;2023-02-15T08:23:53;27.87;;;16.70;;
50815;SDS011;39717;47.324;8.788;2023-02-15T08:26:20;24.63;;;16.23;;
50815;SDS011;39717;47.324;8.788;2023-02-15T08:28:46;28.90;;;17.57;;
50815;SDS011;39717;47.324;8.788;2023-02-15T08:31:14;27.33;;;16.60;;
50815;SDS011;39717;47.324;8.788;2023-02-15T08:33:41;28.43;;;18.80;;
50815;SDS011;39717;47.324;8.788;2023-02-15T08:36:08;29.63;;;18.33;;
50815;SDS011;39717;47.324;8.788;2023-02-15T08:38:35;30.20;;;19.00;;
50815;SDS011;39717;47.324;8.788;2023-02-15T08:43:36;28.90;;;17.63;;
50815;SDS011;39717;47.324;8.788;2023-02-15T08:46:03;30.13;;;17.40;;
50815;SDS011;39717;47.324;8.788;2023-02-15T08:48:29;27.37;;;17.37;;
50815;SDS011;39717;47.324;8.788;2023-02-15T08:50:55;27.43;;;18.10;;
50815;SDS011;39717;47.324;8.788;2023-02-15T08:53:21;27.23;;;18.30;;
50815;SDS011;39717;47.324;8.788;2023-02-15T08:55:55;29.40;;;18.83;;
50815;SDS011;39717;47.324;8.788;2023-02-15T08:58:21;30.27;;;19.17;;
50815;SDS011;39717;47.324;8.788;2023-02-15T09:00:47;35.13;;;20.10;;
50815;SDS011;39717;47.324;8.788;2023-02-15T09:03:13;32.80;;;19.40;;
50815;SDS011;39717;47.324;8.788;2023-02-15T09:05:39;30.63;;;20.07;;
50815;SDS011;39717;47.324;8.788;2023-02-15T09:08:05;27.93;;;18.50;;
50815;SDS011;39717;47.324;8.788;2023-02-15T09:10:32;31.03;;;19.17;;
50815;SDS011;39717;47.324;8.788;2023-02-15T09:12:58;28.50;;;18.33;;
50815;SDS011;39717;47.324;8.788;2023-02-15T09:15:24;29.00;;;18.60;;
50815;SDS011;39717;47.324;8.788;2023-02-15T09:17:50;29.03;;;18.97;;
50815;SDS011;39717;47.324;8.788;2023-02-15T09:20:16;29.43;;;15.77;;
50815;SDS011;39717;47.324;8.788;2023-02-15T09:22:42;33.07;;;19.93;;
50815;SDS011;39717;47.324;8.788;2023-02-15T09:25:08;26.70;;;17.30;;
50815;SDS011;39717;47.324;8.788;2023-02-15T09:27:34;26.60;;;17.43;;
50815;SDS011;39717;47.324;8.788;2023-02-15T09:30:02;26.70;;;17.97;;
50815;SDS011;39717;47.324;8.788;2023-02-15T09:32:28;26.17;;;17.03;;
50815;SDS011;39717;47.324;8.788;2023-02-15T09:34:55;27.00;;;17.70;;
50815;SDS011;39717;47.324;8.788;2023-02-15T09:37:21;25.77;;;16.90;;
50815;SDS011;39717;47.324;8.788;2023-02-15T09:39:47;27.17;;;17.23;;
50815;SDS011;39717;47.324;8.788;2023-02-15T09:50:05;27.33;;;19.83;;
50815;SDS011;39717;47.324;8.788;2023-02-15T10:00:36;27.67;;;17.43;;
50815;SDS011;39717;47.324;8.788;2023-02-15T10:06:01;21.87;;;14.30;;
50815;SDS011;39717;47.324;8.788;2023-02-15T10:13:45;26.67;;;16.13;;
50815;SDS011;39717;47.324;8.788;2023-02-15T10:17:05;21.60;;;14.27;;
50815;SDS011;39717;47.324;8.788;2023-02-15T10:19:09;20.50;;;13.77;;
50815;SDS011;39717;47.324;8.788;2023-02-15T10:21:44;19.97;;;13.73;;
50815;SDS011;39717;47.324;8.788;2023-02-15T10:26:46;16.00;;;12.53;;
50815;SDS011;39717;47.324;8.788;2023-02-15T10:29:27;18.63;;;13.53;;
50815;SDS011;39717;47.324;8.788;2023-02-15T10:32:04;16.23;;;12.10;;
50815;SDS011;39717;47.324;8.788;2023-02-15T10:50:02;13.07;;;10.33;;
50815;SDS011;39717;47.324;8.788;2023-02-15T10:55:34;13.13;;;10.00;;
50815;SDS011;39717;47.324;8.788;2023-02-15T11:07:57;13.50;;;10.27;;
50815;SDS011;39717;47.324;8.788;2023-02-15T11:11:07;12.67;;;9.80;;
50815;SDS011;39717;47.324;8.788;2023-02-15T11:13:17;11.70;;;9.57;;
50815;SDS011;39717;47.324;8.788;2023-02-15T11:15:45;11.93;;;10.00;;
50815;SDS011;39717;47.324;8.788;2023-02-15T11:21:01;11.97;;;10.50;;
50815;SDS011;39717;47.324;8.788;2023-02-15T11:23:31;13.53;;;10.20;;
50815;SDS011;39717;47.324;8.788;2023-02-15T11:26:02;13.17;;;11.43;;
50815;SDS011;39717;47.324;8.788;2023-02-15T11:28:33;14.87;;;10.43;;
50815;SDS011;39717;47.324;8.788;2023-02-15T11:31:23;14.00;;;11.37;;
50815;SDS011;39717;47.324;8.788;2023-02-15T11:33:52;12.17;;;10.07;;
50815;SDS011;39717;47.324;8.788;2023-02-15T11:36:27;13.37;;;10.60;;
50815;SDS011;39717;47.324;8.788;2023-02-15T11:38:59;13.23;;;10.47;;
50815;SDS011;39717;47.324;8.788;2023-02-15T11:41:29;14.10;;;10.83;;
50815;SDS011;39717;47.324;8.788;2023-02-15T11:46:41;15.83;;;11.90;;
50815;SDS011;39717;47.324;8.788;2023-02-15T11:49:10;12.93;;;11.00;;
50815;SDS011;39717;47.324;8.788;2023-02-15T11:51:44;12.33;;;10.60;;
50815;SDS011;39717;47.324;8.788;2023-02-15T11:54:10;14.27;;;11.10;;
50815;SDS011;39717;47.324;8.788;2023-02-15T11:56:36;17.20;;;11.37;;
50815;SDS011;39717;47.324;8.788;2023-02-15T11:59:13;14.80;;;11.70;;
50815;SDS011;39717;47.324;8.788;2023-02-15T12:01:47;16.00;;;11.77;;
50815;SDS011;39717;47.324;8.788;2023-02-15T12:04:19;15.13;;;11.70;;
50815;SDS011;39717;47.324;8.788;2023-02-15T12:12:28;16.37;;;12.60;;
50815;SDS011;39717;47.324;8.788;2023-02-15T12:14:56;14.47;;;11.80;;
50815;SDS011;39717;47.324;8.788;2023-02-15T12:17:25;15.17;;;12.33;;
50815;SDS011;39717;47.324;8.788;2023-02-15T12:19:55;16.17;;;12.47;;
50815;SDS011;39717;47.324;8.788;2023-02-15T12:22:29;18.20;;;12.87;;
50815;SDS011;39717;47.324;8.788;2023-02-15T12:25:01;17.60;;;12.93;;
50815;SDS011;39717;47.324;8.788;2023-02-15T12:27:42;16.33;;;12.30;;
50815;SDS011;39717;47.324;8.788;2023-02-15T12:32:51;17.40;;;12.73;;
50815;SDS011;39717;47.324;8.788;2023-02-15T12:35:38;18.37;;;12.83;;
50815;SDS011;39717;47.324;8.788;2023-02-15T12:40:35;16.03;;;12.30;;
50815;SDS011;39717;47.324;8.788;2023-02-15T12:43:02;16.00;;;11.73;;
50815;SDS011;39717;47.324;8.788;2023-02-15T12:45:37;16.00;;;12.33;;
50815;SDS011;39717;47.324;8.788;2023-02-15T12:50:41;15.77;;;12.17;;
50815;SDS011;39717;47.324;8.788;2023-02-15T12:58:24;16.47;;;12.23;;
50815;SDS011;39717;47.324;8.788;2023-02-15T13:01:04;14.17;;;11.80;;
50815;SDS011;39717;47.324;8.788;2023-02-15T13:06:18;14.60;;;11.67;;
50815;SDS011;39717;47.324;8.788;2023-02-15T13:08:48;13.97;;;11.17;;
50815;SDS011;39717;47.324;8.788;2023-02-15T13:11:33;13.10;;;11.17;;
50815;SDS011;39717;47.324;8.788;2023-02-15T13:14:15;12.80;;;10.27;;
50815;SDS011;39717;47.324;8.788;2023-02-15T13:16:42;11.23;;;10.03;;
50815;SDS011;39717;47.324;8.788;2023-02-15T13:19:14;11.40;;;10.20;;
50815;SDS011;39717;47.324;8.788;2023-02-15T13:21:42;14.10;;;10.50;;
50815;SDS011;39717;47.324;8.788;2023-02-15T13:26:52;11.53;;;9.67;;
50815;SDS011;39717;47.324;8.788;2023-02-15T13:29:24;9.73;;;8.50;;
50815;SDS011;39717;47.324;8.788;2023-02-15T13:31:51;13.60;;;10.00;;
50815;SDS011;39717;47.324;8.788;2023-02-15T13:34:20;13.20;;;9.73;;
50815;SDS011;39717;47.324;8.788;2023-02-15T13:36:54;11.27;;;9.13;;
50815;SDS011;39717;47.324;8.788;2023-02-15T13:40:07;12.50;;;10.13;;
50815;SDS011;39717;47.324;8.788;2023-02-15T13:52:29;11.27;;;9.40;;
50815;SDS011;39717;47.324;8.788;2023-02-15T13:57:33;13.50;;;8.70;;
50815;SDS011;39717;47.324;8.788;2023-02-15T14:00:04;12.40;;;8.20;;
50815;SDS011;39717;47.324;8.788;2023-02-15T14:02:37;10.43;;;8.27;;
50815;SDS011;39717;47.324;8.788;2023-02-15T14:05:15;8.70;;;7.40;;
50815;SDS011;39717;47.324;8.788;2023-02-15T14:07:56;9.73;;;7.90;;
50815;SDS011;39717;47.324;8.788;2023-02-15T14:15:32;9.97;;;8.13;;
50815;SDS011;39717;47.324;8.788;2023-02-15T14:31:43;11.90;;;9.00;;
50815;SDS011;39717;47.324;8.788;2023-02-15T14:34:30;13.53;;;10.47;;
50815;SDS011;39717;47.324;8.788;2023-02-15T14:36:58;12.67;;;9.80;;
50815;SDS011;39717;47.324;8.788;2023-02-15T14:42:27;13.87;;;10.40;;
50815;SDS011;39717;47.324;8.788;2023-02-15T14:45:01;12.50;;;9.83;;
50815;SDS011;39717;47.324;8.788;2023-02-15T14:49:56;12.97;;;10.00;;
50815;SDS011;39717;47.324;8.788;2023-02-15T14:52:22;12.50;;;10.07;;
50815;SDS011;39717;47.324;8.788;2023-02-15T15:07:00;11.83;;;9.47;;
50815;SDS011;39717;47.324;8.788;2023-02-15T15:09:28;11.57;;;9.70;;
50815;SDS011;39717;47.324;8.788;2023-02-15T15:11:55;10.97;;;9.07;;
50815;SDS011;39717;47.324;8.788;2023-02-15T15:14:39;12.93;;;10.10;;
50815;SDS011;39717;47.324;8.788;2023-02-15T15:17:06;13.77;;;9.53;;
50815;SDS011;39717;47.324;8.788;2023-02-15T15:22:18;10.97;;;9.40;;
50815;SDS011;39717;47.324;8.788;2023-02-15T15:29:55;11.30;;;8.93;;
50815;SDS011;39717;47.324;8.788;2023-02-15T15:32:22;15.60;;;10.50;;
50815;SDS011;39717;47.324;8.788;2023-02-15T15:40:54;12.43;;;10.03;;
50815;SDS011;39717;47.324;8.788;2023-02-15T15:46:32;15.70;;;10.00;;
50815;SDS011;39717;47.324;8.788;2023-02-15T15:49:12;18.17;;;11.00;;
50815;SDS011;39717;47.324;8.788;2023-02-15T15:51:40;15.13;;;11.30;;
50815;SDS011;39717;47.324;8.788;2023-02-15T15:54:20;14.30;;;11.40;;
50815;SDS011;39717;47.324;8.788;2023-02-15T15:56:48;19.97;;;13.47;;
50815;SDS011;39717;47.324;8.788;2023-02-15T15:59:20;16.50;;;12.33;;
50815;SDS011;39717;47.324;8.788;2023-02-15T16:01:47;16.93;;;13.50;;
50815;SDS011;39717;47.324;8.788;2023-02-15T16:04:14;15.33;;;12.57;;
50815;SDS011;39717;47.324;8.788;2023-02-15T16:06:48;18.30;;;13.33;;
50815;SDS011;39717;47.324;8.788;2023-02-15T16:09:18;16.43;;;12.83;;
50815;SDS011;39717;47.324;8.788;2023-02-15T16:11:46;18.17;;;13.43;;
50815;SDS011;39717;47.324;8.788;2023-02-15T16:14:18;19.93;;;13.47;;
50815;SDS011;39717;47.324;8.788;2023-02-15T16:16:51;17.27;;;13.73;;
50815;SDS011;39717;47.324;8.788;2023-02-15T16:19:19;18.67;;;13.17;;
50815;SDS011;39717;47.324;8.788;2023-02-15T16:21:46;17.47;;;13.43;;
50815;SDS011;39717;47.324;8.788;2023-02-15T16:24:25;21.47;;;14.07;;
50815;SDS011;39717;47.324;8.788;2023-02-15T16:29:34;23.33;;;14.47;;
50815;SDS011;39717;47.324;8.788;2023-02-15T16:32:01;18.10;;;14.57;;
50815;SDS011;39717;47.324;8.788;2023-02-15T16:34:28;18.97;;;14.67;;
50815;SDS011;39717;47.324;8.788;2023-02-15T16:37:16;20.30;;;14.00;;
50815;SDS011;39717;47.324;8.788;2023-02-15T16:39:44;20.70;;;13.97;;
50815;SDS011;39717;47.324;8.788;2023-02-15T16:42:13;21.67;;;14.33;;
50815;SDS011;39717;47.324;8.788;2023-02-15T16:44:42;24.07;;;15.47;;
50815;SDS011;39717;47.324;8.788;2023-02-15T16:47:15;19.97;;;14.33;;
50815;SDS011;39717;47.324;8.788;2023-02-15T16:49:46;19.83;;;15.40;;
50815;SDS011;39717;47.324;8.788;2023-02-15T16:52:15;20.03;;;14.83;;
50815;SDS011;39717;47.324;8.788;2023-02-15T16:54:46;20.70;;;15.07;;
50815;SDS011;39717;47.324;8.788;2023-02-15T16:57:21;22.73;;;14.47;;
50815;SDS011;39717;47.324;8.788;2023-02-15T16:59:50;22.13;;;15.40;;
50815;SDS011;39717;47.324;8.788;2023-02-15T17:02:27;26.37;;;15.97;;
50815;SDS011;39717;47.324;8.788;2023-02-15T17:05:16;24.53;;;15.83;;
50815;SDS011;39717;47.324;8.788;2023-02-15T17:08:27;28.93;;;16.33;;
50815;SDS011;39717;47.324;8.788;2023-02-15T17:11:03;31.03;;;16.17;;
50815;SDS011;39717;47.324;8.788;2023-02-15T17:19:46;26.67;;;17.80;;
50815;SDS011;39717;47.324;8.788;2023-02-15T17:22:22;26.67;;;17.07;;
50815;SDS011;39717;47.324;8.788;2023-02-15T17:24:50;28.90;;;18.20;;
50815;SDS011;39717;47.324;8.788;2023-02-15T17:27:29;29.03;;;17.73;;
50815;SDS011;39717;47.324;8.788;2023-02-15T17:32:52;28.13;;;17.17;;
50815;SDS011;39717;47.324;8.788;2023-02-15T17:35:24;24.63;;;16.93;;
50815;SDS011;39717;47.324;8.788;2023-02-15T17:38:02;28.37;;;18.47;;
50815;SDS011;39717;47.324;8.788;2023-02-15T17:40:32;32.47;;;19.47;;
50815;SDS011;39717;47.324;8.788;2023-02-15T17:42:59;29.20;;;20.60;;
50815;SDS011;39717;47.324;8.788;2023-02-15T17:45:30;29.87;;;20.07;;
50815;SDS011;39717;47.324;8.788;2023-02-15T17:47:58;28.37;;;19.87;;
50815;SDS011;39717;47.324;8.788;2023-02-15T17:50:27;30.83;;;19.57;;
50815;SDS011;39717;47.324;8.788;2023-02-15T17:52:55;27.57;;;18.63;;
50815;SDS011;39717;47.324;8.788;2023-02-15T17:55:23;31.70;;;19.90;;